Time;durP1;ratioP1;P1;durP2;ratioP2;P2;SDS_P1;SDS_P2;PMS_P1;PMS_P2;Temp;Humidity;BMP_temperature;BMP_pressure;BME280_temperature;BME280_humidity;BME280_pressure;Samples;Min_cycle;Max_cycle;Signal;HPM_P1;HPM_P2
2020/12/17 00:01:05;;;;;;;72.57;28.30;;;;;;;4.29;100.00;98346.31;5095340;28;20036;-87
2020/12/17 00:03:30;;;;;;;72.07;30.50;;;;;;;4.24;100.00;98348.22;5094415;28;20039;-87
2020/12/17 00:05:56;;;;;;;75.28;30.77;;;;;;;4.35;100.00;98351.47;5094339;28;20027;-86
2020/12/17 00:08:21;;;;;;;71.60;28.70;;;;;;;4.34;100.00;98344.41;5094728;28;20092;-85
2020/12/17 00:10:47;;;;;;;77.70;29.30;;;;;;;4.24;100.00;98343.81;5094258;28;20115;-86
2020/12/17 00:13:16;;;;;;;69.13;28.92;;;;;;;4.26;100.00;98341.09;5094088;28;20117;-85
2020/12/17 00:15:41;;;;;;;82.18;31.10;;;;;;;4.37;100.00;98347.00;5111331;28;20031;-84
2020/12/17 00:18:07;;;;;;;71.90;29.85;;;;;;;4.32;100.00;98343.59;5094854;28;20028;-84
2020/12/17 00:20:33;;;;;;;67.68;28.58;;;;;;;4.22;100.00;98332.34;5094196;28;20023;-84
2020/12/17 00:22:58;;;;;;;71.68;30.13;;;;;;;4.24;100.00;98343.81;5094597;28;20031;-82
2020/12/17 00:25:24;;;;;;;73.80;29.60;;;;;;;4.27;100.00;98345.50;5110798;28;20077;-84
2020/12/17 00:27:50;;;;;;;83.32;32.28;;;;;;;4.28;100.00;98344.56;5093363;28;20177;-85
2020/12/17 00:30:17;;;;;;;85.78;31.63;;;;;;;4.31;100.00;98355.09;5094040;28;20028;-84
2020/12/17 00:32:44;;;;;;;78.63;30.35;;;;;;;4.24;100.00;98345.56;5094216;28;20044;-84
2020/12/17 00:35:10;;;;;;;77.55;36.85;;;;;;;4.33;100.00;98350.66;5093177;28;20035;-84
2020/12/17 00:37:37;;;;;;;72.03;31.00;;;;;;;4.30;100.00;98356.00;5096654;28;20023;-84
2020/12/17 00:40:12;;;;;;;74.13;31.92;;;;;;;4.27;100.00;98358.75;5097283;28;20099;-85
2020/12/17 00:42:47;;;;;;;67.57;27.25;;;;;;;4.28;100.00;98357.81;5106078;28;20027;-85
2020/12/17 00:45:16;;;;;;;70.63;28.05;;;;;;;4.23;100.00;98365.88;5097783;28;20034;-85
2020/12/17 00:47:43;;;;;;;73.80;28.85;;;;;;;4.28;100.00;98355.16;5097851;28;20078;-85
2020/12/17 00:50:10;;;;;;;71.18;28.15;;;;;;;4.40;100.00;98360.16;5096626;28;20031;-85
2020/12/17 00:52:42;;;;;;;72.72;27.27;;;;;;;4.39;100.00;98358.44;5097202;28;20027;-83
2020/12/17 00:55:08;;;;;;;75.70;29.40;;;;;;;4.35;100.00;98356.75;5096680;28;20038;-84
2020/12/17 00:57:34;;;;;;;76.70;30.58;;;;;;;4.22;100.00;98358.81;5096585;28;20482;-84
2020/12/17 01:00:00;;;;;;;69.65;28.48;;;;;;;4.28;100.00;98348.09;5096979;28;20047;-84
2020/12/17 01:02:26;;;;;;;71.07;27.88;;;;;;;4.31;100.00;98352.44;5096686;28;20031;-84
2020/12/17 01:04:51;;;;;;;68.22;29.23;;;;;;;4.30;100.00;98356.00;5096492;28;20023;-84
2020/12/17 01:07:17;;;;;;;69.68;28.95;;;;;;;4.35;100.00;98362.06;5096510;28;20111;-84
2020/12/17 01:09:44;;;;;;;88.28;34.92;;;;;;;4.32;100.00;98352.41;5097280;28;20035;-84
2020/12/17 01:12:09;;;;;;;102.80;41.22;;;;;;;4.33;100.00;98359.47;5096573;28;20107;-84
2020/12/17 01:14:36;;;;;;;92.28;40.60;;;;;;;4.30;100.00;98348.94;5096810;28;20059;-85
2020/12/17 01:17:04;;;;;;;83.60;36.20;;;;;;;4.27;100.00;98358.75;5096908;28;20042;-84
2020/12/17 01:19:30;;;;;;;80.13;35.80;;;;;;;4.24;100.00;98356.16;5096438;28;20035;-84
2020/12/17 01:21:55;;;;;;;75.45;32.83;;;;;;;4.30;100.00;98358.66;5096693;28;20027;-85
2020/12/17 01:24:21;;;;;;;78.38;34.90;;;;;;;4.33;100.00;98350.66;5096958;28;20050;-85
2020/12/17 01:26:47;;;;;;;79.53;35.30;;;;;;;4.45;100.00;98366.22;5097437;28;20023;-84
2020/12/17 01:29:12;;;;;;;78.38;36.17;;;;;;;4.42;100.00;98355.72;5096950;28;20044;-85
2020/12/17 01:31:38;;;;;;;71.68;34.08;;;;;;;4.37;100.00;98344.34;5097138;28;20220;-82
2020/12/17 01:34:03;;;;;;;75.10;32.47;;;;;;;4.49;100.00;98357.28;5097638;28;20139;-84
2020/12/17 01:36:29;;;;;;;76.90;34.15;;;;;;;4.46;100.00;98348.56;5096711;28;20122;-84
2020/12/17 01:38:55;;;;;;;81.20;35.25;;;;;;;4.50;100.00;98356.38;5097261;28;20016;-84
2020/12/17 01:41:20;;;;;;;86.18;38.17;;;;;;;4.50;100.00;98351.09;5113911;28;20102;-84
2020/12/17 01:43:46;;;;;;;87.05;38.67;;;;;;;4.54;100.00;98352.75;5096836;28;20045;-84
2020/12/17 01:46:13;;;;;;;101.03;42.08;;;;;;;4.57;100.00;98357.09;5096613;28;20024;-85
2020/12/17 01:48:40;;;;;;;104.60;42.53;;;;;;;4.55;100.00;98348.34;5095406;28;20031;-85
2020/12/17 01:51:06;;;;;;;101.82;40.92;;;;;;;4.53;100.00;98351.00;5096292;28;20038;-84
2020/12/17 01:53:40;;;;;;;101.03;43.15;;;;;;;4.44;100.00;98345.94;5096927;28;20039;-85
2020/12/17 01:56:26;;;;;;;91.85;39.90;;;;;;;4.52;100.00;98349.28;5096403;28;20057;-84
2020/12/17 01:58:57;;;;;;;97.20;38.92;;;;;;;4.50;100.00;98355.50;5093173;28;20019;-84
2020/12/17 02:01:24;;;;;;;114.40;45.10;;;;;;;4.47;100.00;98353.81;5076944;28;20035;-85
2020/12/17 02:03:50;;;;;;;105.97;38.78;;;;;;;4.43;100.00;98357.44;5090197;28;20057;-85
2020/12/17 02:06:16;;;;;;;116.63;43.13;;;;;;;4.44;100.00;98360.97;5096389;28;20466;-85
2020/12/17 02:08:42;;;;;;;88.75;36.30;;;;;;;4.56;100.00;98360.66;5096131;28;20032;-84
2020/12/17 02:11:09;;;;;;;84.78;36.00;;;;;;;4.41;100.00;98339.84;5096026;28;20383;-84
2020/12/17 02:13:35;;;;;;;64.32;28.83;;;;;;;4.52;100.00;98348.41;5112928;28;20034;-84
2020/12/17 02:16:03;;;;;;;69.78;29.20;;;;;;;4.38;100.00;98331.09;5095822;28;20020;-84
2020/12/17 02:18:29;;;;;;;63.63;28.67;;;;;;;4.52;100.00;98354.59;5095203;28;20031;-84
2020/12/17 02:20:55;;;;;;;68.82;29.77;;;;;;;4.54;100.00;98343.94;5095407;28;20027;-85
2020/12/17 02:23:22;;;;;;;62.78;29.00;;;;;;;4.48;100.00;98341.44;5095390;28;20031;-83
2020/12/17 02:25:48;;;;;;;65.28;29.52;;;;;;;4.53;100.00;98345.72;5078838;28;20114;-84
2020/12/17 02:28:15;;;;;;;70.97;29.88;;;;;;;4.36;100.00;98324.97;5095839;28;20035;-85
2020/12/17 02:30:41;;;;;;;77.38;31.65;;;;;;;4.51;100.00;98344.88;5095158;28;20042;-84
2020/12/17 02:33:07;;;;;;;76.50;32.40;;;;;;;4.26;100.00;98319.91;5112821;28;20062;-84
2020/12/17 02:35:33;;;;;;;73.47;31.40;;;;;;;4.46;100.00;98354.72;5095424;28;20108;-84
2020/12/17 02:37:59;;;;;;;78.45;33.60;;;;;;;4.50;100.00;98342.25;5095278;28;20380;-84
2020/12/17 02:40:25;;;;;;;84.18;35.80;;;;;;;4.51;100.00;98330.78;5095628;28;20054;-84
2020/12/17 02:42:51;;;;;;;94.45;41.05;;;;;;;4.40;100.00;98317.78;5095849;28;20027;-84
2020/12/17 02:45:16;;;;;;;95.35;41.17;;;;;;;4.36;100.00;98317.03;5095928;28;20036;-84
2020/12/17 02:47:42;;;;;;;94.90;39.75;;;;;;;4.42;100.00;98329.22;5095686;28;20028;-84
2020/12/17 02:50:08;;;;;;;88.82;38.58;;;;;;;4.49;100.00;98345.84;5095530;28;20403;-85
2020/12/17 02:52:33;;;;;;;97.45;41.03;;;;;;;4.48;100.00;98336.16;5096428;28;20050;-86
2020/12/17 02:54:59;;;;;;;121.03;46.75;;;;;;;4.39;100.00;98316.06;5096236;28;20031;-85
2020/12/17 02:57:25;;;;;;;152.30;55.15;;;;;;;4.52;100.00;98332.53;5096572;28;20533;-84
2020/12/17 02:59:50;;;;;;;141.02;53.05;;;;;;;4.37;100.00;98297.53;5093934;28;20028;-84
2020/12/17 03:02:16;;;;;;;110.78;43.10;;;;;;;4.55;100.00;98333.31;5094804;28;20027;-84
2020/12/17 03:04:41;;;;;;;85.90;35.17;;;;;;;4.50;100.00;98323.72;5094491;28;20047;-83
2020/12/17 03:07:07;;;;;;;86.25;36.90;;;;;;;4.62;100.00;98337.53;5094342;28;20020;-83
2020/12/17 03:09:33;;;;;;;71.57;33.22;;;;;;;4.53;100.00;98321.88;5094194;28;20031;-84
2020/12/17 03:11:58;;;;;;;77.35;32.88;;;;;;;4.61;100.00;98346.41;5094523;28;20106;-84
2020/12/17 03:14:24;;;;;;;75.03;33.17;;;;;;;4.56;100.00;98342.09;5094612;28;20400;-84
2020/12/17 03:16:49;;;;;;;75.82;34.03;;;;;;;4.57;100.00;98334.13;5094576;28;20074;-84
2020/12/17 03:19:15;;;;;;;67.97;31.88;;;;;;;4.63;100.00;98343.69;5095597;28;20054;-84
2020/12/17 03:21:41;;;;;;;73.38;34.50;;;;;;;4.69;100.00;98341.78;5095246;28;20038;-84
2020/12/17 03:24:06;;;;;;;76.28;35.38;;;;;;;4.59;100.00;98334.94;5094711;28;20077;-84
2020/12/17 03:26:32;;;;;;;83.30;36.17;;;;;;;4.70;100.00;98340.00;5112996;28;20034;-84
2020/12/17 03:28:58;;;;;;;64.25;29.52;;;;;;;4.71;100.00;98345.22;5096004;28;20024;-84
2020/12/17 03:31:23;;;;;;;48.10;20.10;;;;;;;4.52;100.00;98349.28;5111415;28;20032;-84
2020/12/17 03:33:49;;;;;;;51.80;24.70;;;;;;;4.65;100.00;98349.81;5095117;28;20051;-84
2020/12/17 03:36:15;;;;;;;44.05;21.55;;;;;;;4.65;100.00;98349.81;5095806;28;20118;-84
2020/12/17 03:38:40;;;;;;;42.65;18.23;;;;;;;4.66;100.00;98359.53;5094774;28;20110;-84
2020/12/17 03:41:06;;;;;;;55.50;26.67;;;;;;;4.62;100.00;98355.19;5112818;28;20047;-85
2020/12/17 03:43:32;;;;;;;42.95;21.33;;;;;;;4.60;100.00;98363.19;5095666;28;20089;-84
2020/12/17 03:45:57;;;;;;;33.85;17.15;;;;;;;4.60;100.00;98351.72;5095111;28;20106;-85
2020/12/17 03:48:23;;;;;;;41.28;19.80;;;;;;;4.61;100.00;98357.00;5094628;28;20038;-85
2020/12/17 03:50:48;;;;;;;64.75;32.72;;;;;;;4.69;99.79;98362.97;5094002;28;20032;-85
2020/12/17 03:53:14;;;;;;;58.35;27.60;;;;;;;4.69;99.18;98352.38;5094628;28;20508;-85
2020/12/17 03:55:40;;;;;;;49.90;22.67;;;;;;;4.71;99.59;98361.13;5115708;28;20054;-85
2020/12/17 03:58:05;;;;;;;130.57;46.45;;;;;;;4.70;100.00;98364.72;5094044;28;20047;-84
2020/12/17 04:00:31;;;;;;;82.80;31.48;;;;;;;4.66;100.00;98367.47;5094249;28;20372;-85
2020/12/17 04:02:57;;;;;;;66.05;27.55;;;;;;;4.63;100.00;98364.91;5096761;28;20031;-85
2020/12/17 04:05:22;;;;;;;68.25;27.38;;;;;;;4.64;100.00;98366.66;5093954;28;20038;-85
2020/12/17 04:07:48;;;;;;;48.50;21.92;;;;;;;4.62;100.00;98366.66;5111093;28;20051;-84
2020/12/17 04:10:13;;;;;;;51.00;22.88;;;;;;;4.59;100.00;98369.41;5094057;28;20038;-85
2020/12/17 04:12:39;;;;;;;55.28;24.58;;;;;;;4.60;100.00;98365.84;5098749;28;20142;-84
2020/12/17 04:15:05;;;;;;;58.72;25.70;;;;;;;4.70;100.00;98362.06;5098324;28;20023;-85
2020/12/17 04:17:31;;;;;;;56.95;25.00;;;;;;;4.76;100.00;98371.63;5098693;28;20062;-85
2020/12/17 04:19:56;;;;;;;48.38;21.80;;;;;;;4.69;100.00;98362.97;5098462;28;20031;-85
2020/12/17 04:22:22;;;;;;;50.65;21.60;;;;;;;4.58;100.00;98365.03;5097475;28;20027;-85
2020/12/17 04:24:47;;;;;;;56.70;22.33;;;;;;;4.64;100.00;98385.19;5097808;28;20080;-85
2020/12/17 04:27:14;;;;;;;69.32;27.52;;;;;;;4.50;100.00;98372.28;5114367;28;20181;-85
2020/12/17 04:29:39;;;;;;;69.53;27.33;;;;;;;4.54;100.00;98373.06;5097391;28;20031;-85
2020/12/17 04:34:52;;;;;;;63.38;23.65;;;;;;;4.65;100.00;98361.28;5094518;28;20050;-85
2020/12/17 04:37:18;;;;;;;50.22;19.55;;;;;;;4.69;100.00;98373.56;5077361;28;20032;-85
2020/12/17 04:39:43;;;;;;;49.97;19.85;;;;;;;4.45;100.00;98362.72;5074625;28;20050;-85
2020/12/17 04:42:09;;;;;;;47.05;19.55;;;;;;;4.62;100.00;98377.25;5076911;28;20042;-85
2020/12/17 04:44:35;;;;;;;60.45;24.77;;;;;;;4.71;100.00;98377.03;5074037;28;20044;-85
2020/12/17 04:47:05;;;;;;;53.10;22.35;;;;;;;4.67;100.00;98370.09;5067512;28;20032;-85
2020/12/17 04:49:44;;;;;;;55.60;24.20;;;;;;;4.72;100.00;98377.91;5076964;28;20036;-85
2020/12/17 04:52:13;;;;;;;60.33;25.88;;;;;;;4.72;100.00;98375.25;5085517;28;20024;-86
2020/12/17 04:54:39;;;;;;;75.00;28.45;;;;;;;4.78;100.00;98397.19;5076341;28;20020;-85
2020/12/17 04:57:09;;;;;;;71.07;30.35;;;;;;;4.82;100.00;98384.72;5076340;28;20100;-85
2020/12/17 04:59:46;;;;;;;65.45;26.98;;;;;;;4.82;100.00;98364.41;5068696;28;20030;-84
2020/12/17 05:02:13;;;;;;;61.30;24.23;;;;;;;4.76;100.00;98368.97;5060982;28;20059;-85
2020/12/17 05:04:41;;;;;;;60.63;24.77;;;;;;;4.81;100.00;98370.59;5076608;28;20032;-85
2020/12/17 05:07:09;;;;;;;64.70;27.05;;;;;;;4.81;100.00;98373.25;5072067;28;20403;-85
2020/12/17 05:09:36;;;;;;;62.45;27.85;;;;;;;4.82;100.00;98382.94;5077176;28;20092;-84
2020/12/17 05:12:02;;;;;;;72.03;29.92;;;;;;;4.79;100.00;98380.38;5076679;28;20028;-85
2020/12/17 05:14:28;;;;;;;75.10;29.58;;;;;;;4.88;100.00;98389.88;5076607;28;20039;-85
2020/12/17 05:16:55;;;;;;;60.83;25.23;;;;;;;4.89;100.00;98386.31;5067691;28;20036;-84
2020/12/17 05:19:22;;;;;;;63.47;24.73;;;;;;;4.63;100.00;98373.72;5076401;28;20024;-84
2020/12/17 05:21:48;;;;;;;73.72;30.35;;;;;;;4.66;100.00;98368.34;5073927;28;20028;-85
2020/12/17 05:24:13;;;;;;;77.22;28.88;;;;;;;4.75;100.00;98376.06;5076561;28;20032;-85
2020/12/17 05:26:40;;;;;;;82.25;30.48;;;;;;;4.80;100.00;98374.16;5067811;28;20123;-85
2020/12/17 05:29:05;;;;;;;82.85;34.00;;;;;;;4.81;100.00;98380.31;5076408;28;20036;-86
2020/12/17 05:31:36;;;;;;;89.75;32.58;;;;;;;4.77;100.00;98366.28;5076681;28;20406;-86
2020/12/17 05:34:52;;;;;;;78.00;32.90;;;;;;;4.63;100.00;98352.53;5089108;28;20111;-87
2020/12/17 05:37:21;;;;;;;78.75;30.58;;;;;;;4.50;100.00;98321.06;4997078;28;20046;-85
2020/12/17 05:39:49;;;;;;;80.95;29.50;;;;;;;4.83;100.00;98376.72;5023277;27;20057;-85
2020/12/17 05:42:20;;;;;;;81.53;32.55;;;;;;;4.79;100.00;98380.38;5100171;27;20027;-86
2020/12/17 05:44:46;;;;;;;73.93;29.23;;;;;;;4.80;100.00;98374.16;5084177;28;20023;-85
2020/12/17 05:47:13;;;;;;;80.80;28.20;;;;;;;4.70;100.00;98359.41;5087286;28;20082;-84
2020/12/17 05:49:39;;;;;;;71.45;29.13;;;;;;;4.84;100.00;98372.28;5097145;28;20499;-84
2020/12/17 05:52:10;;;;;;;63.00;25.45;;;;;;;4.90;100.00;98372.13;5096368;28;20038;-85
2020/12/17 05:54:36;;;;;;;32.90;15.90;;;;;;;4.88;100.00;98385.44;5097538;28;20097;-84
2020/12/17 05:57:07;;;;;;;46.20;22.75;;;;;;;4.93;100.00;98378.22;5096208;28;20023;-84
2020/12/17 05:59:33;;;;;;;34.80;16.55;;;;;;;4.92;99.61;98376.47;5114536;28;20028;-85
2020/12/17 06:02:19;;;;;;;34.05;15.57;;;;;;;4.98;98.74;98383.41;5096944;28;20027;-85
2020/12/17 06:04:45;;;;;;;33.78;14.05;;;;;;;4.98;98.69;98379.91;5099964;28;20110;-84
2020/12/17 06:07:14;;;;;;;33.15;15.10;;;;;;;4.96;98.80;98387.00;5095882;28;20474;-83
2020/12/17 06:09:46;;;;;;;39.78;17.92;;;;;;;5.07;99.02;98379.66;5111758;28;20024;-83
2020/12/17 06:12:16;;;;;;;41.63;18.13;;;;;;;5.09;99.18;98385.78;5098440;27;20023;-84
2020/12/17 06:14:43;;;;;;;41.53;18.67;;;;;;;5.13;99.39;98395.41;5098296;27;20031;-85
2020/12/17 06:17:09;;;;;;;44.83;19.63;;;;;;;5.07;99.71;98390.25;5095207;27;20555;-86
2020/12/17 06:19:35;;;;;;;39.72;18.33;;;;;;;5.05;99.84;98389.41;5113114;27;20162;-84
2020/12/17 06:22:09;;;;;;;40.25;16.48;;;;;;;5.00;100.00;98397.50;5112763;27;20027;-85
2020/12/17 06:24:35;;;;;;;46.65;19.48;;;;;;;5.00;99.98;98393.97;5114726;27;20091;-86
2020/12/17 06:27:08;;;;;;;43.60;19.55;;;;;;;4.91;99.65;98401.25;5117787;27;20081;-83
2020/12/17 06:40:30;;;;;;;84.63;40.38;;;;;;;4.79;99.55;98390.09;5056308;28;20041;-86
2020/12/17 06:42:56;;;;;;;43.17;21.58;;;;;;;4.69;99.12;98372.69;5094805;28;20475;-85
2020/12/17 06:45:26;;;;;;;59.33;26.15;;;;;;;4.97;98.90;98418.78;5116199;27;20035;-84
2020/12/17 06:47:51;;;;;;;61.38;33.25;;;;;;;4.92;98.96;98407.44;5095088;28;20028;-85
2020/12/17 06:50:42;;;;;;;74.28;34.05;;;;;;;5.07;98.75;98408.81;5112760;27;20035;-82
2020/12/17 06:53:44;;;;;;;52.45;25.67;;;;;;;4.91;97.18;98380.06;5097272;27;20478;-86
2020/12/17 06:56:21;;;;;;;69.05;32.97;;;;;;;5.00;97.54;98388.66;5111536;28;20128;-86
2020/12/17 06:59:38;;;;;;;37.95;18.10;;;;;;;4.95;96.37;98374.69;5096267;28;20043;-85
2020/12/17 07:09:36;;;;;;;;;;;;;;;;;;;;;
2020/12/17 07:22:37;;;;;;;38.55;18.83;;;;;;;4.68;98.07;98334.72;4915550;28;20081;-86
2020/12/17 07:25:03;;;;;;;31.17;14.80;;;;;;;5.06;98.44;98388.50;4985357;28;20074;-85
2020/12/17 07:34:34;;;;;;;37.47;17.70;;;;;;;5.27;97.26;98385.28;5026071;28;20060;-85
2020/12/17 07:37:14;;;;;;;34.28;15.93;;;;;;;5.07;97.73;98372.56;5075365;28;20031;-85
2020/12/17 07:50:40;;;;;;;42.17;18.60;;;;;;;5.63;96.18;98421.38;5101321;28;20030;-85
2020/12/17 07:53:24;;;;;;;33.35;17.58;;;;;;;5.53;95.60;98401.34;5082585;28;20041;-76
2020/12/17 07:55:54;;;;;;;39.97;18.98;;;;;;;5.64;95.91;98409.88;5079518;28;20028;-74
2020/12/17 07:58:20;;;;;;;32.50;16.63;;;;;;;5.81;94.50;98423.53;5070172;28;20119;-76
2020/12/17 08:00:46;;;;;;;29.15;14.73;;;;;;;5.63;94.22;98418.72;5088726;28;20111;-76
2020/12/17 08:03:11;;;;;;;39.13;17.95;;;;;;;5.33;95.38;98416.94;5085972;28;20560;-75
2020/12/17 08:05:40;;;;;;;39.13;19.27;;;;;;;5.48;95.65;98421.81;5087613;28;20035;-85
2020/12/17 08:08:06;;;;;;;38.85;19.20;;;;;;;5.56;95.39;98424.28;5089825;28;20491;-85
2020/12/17 08:10:41;;;;;;;43.65;21.33;;;;;;;5.56;95.03;98427.78;5074742;28;20032;-84
2020/12/17 08:13:07;;;;;;;39.60;19.85;;;;;;;5.41;94.64;98417.63;5066607;28;20173;-85
2020/12/17 08:15:33;;;;;;;37.88;18.67;;;;;;;5.68;94.87;98429.22;5062774;28;20100;-83
2020/12/17 08:17:59;;;;;;;44.20;19.15;;;;;;;5.82;94.25;98427.03;5074104;28;20031;-85
2020/12/17 08:20:25;;;;;;;39.35;18.85;;;;;;;5.82;93.65;98424.38;5066879;28;20028;-85
2020/12/17 08:22:53;;;;;;;44.72;21.27;;;;;;;5.88;92.84;98419.81;5073433;28;20036;-85
2020/12/17 08:25:20;;;;;;;47.38;21.40;;;;;;;5.96;92.10;98432.88;5075072;28;20403;-83
2020/12/17 08:27:47;;;;;;;45.47;22.75;;;;;;;5.80;93.40;98435.06;5069174;28;20496;-84
2020/12/17 08:30:14;;;;;;;48.58;23.13;;;;;;;5.94;93.17;98435.56;5077583;28;20050;-84
2020/12/17 08:32:50;;;;;;;53.47;26.23;;;;;;;5.91;93.41;98426.81;5073345;28;20126;-85
2020/12/17 08:35:24;;;;;;;54.13;27.02;;;;;;;6.12;92.68;98420.84;5088321;28;20051;-85
2020/12/17 08:37:53;;;;;;;57.13;28.45;;;;;;;6.14;93.02;98436.75;5059054;28;20062;-85
2020/12/17 08:40:27;;;;;;;52.63;25.58;;;;;;;6.26;90.81;98415.13;5080134;28;20099;-86
2020/12/17 08:43:03;;;;;;;64.28;27.63;;;;;;;6.23;90.47;98421.41;5069363;28;20024;-84
2020/12/17 08:45:29;;;;;;;48.83;24.48;;;;;;;6.29;90.72;98425.66;5052443;28;20024;-85
2020/12/17 08:48:00;;;;;;;53.95;27.63;;;;;;;6.39;90.38;98408.53;5088334;28;20032;-85
2020/12/17 08:50:26;;;;;;;76.22;36.03;;;;;;;6.33;91.00;98427.31;5067543;28;20419;-84
2020/12/17 08:52:53;;;;;;;54.25;27.65;;;;;;;6.33;91.45;98414.03;5061570;28;20142;-85
2020/12/17 08:55:19;;;;;;;57.90;29.25;;;;;;;6.59;88.39;98419.38;5068822;28;20031;-84
2020/12/17 08:57:46;;;;;;;52.38;26.13;;;;;;;6.52;88.32;98425.81;5067014;28;20028;-84
2020/12/17 09:00:19;;;;;;;54.42;28.02;;;;;;;6.54;88.48;98423.97;5070204;28;20603;-85
2020/12/17 09:02:45;;;;;;;56.00;26.90;;;;;;;6.66;87.71;98420.06;5078159;28;20097;-84
2020/12/17 09:05:12;;;;;;;59.13;28.63;;;;;;;6.79;87.87;98416.09;5071325;28;20027;-84
2020/12/17 09:07:46;;;;;;;62.70;32.33;;;;;;;6.91;87.84;98415.66;5077732;28;20088;-85
2020/12/17 09:10:15;;;;;;;57.30;28.05;;;;;;;6.97;87.14;98413.69;5072102;28;20063;-83
2020/12/17 09:12:41;;;;;;;62.75;32.00;;;;;;;6.89;88.26;98412.22;5059716;28;20035;-85
2020/12/17 09:15:11;;;;;;;52.38;28.30;;;;;;;6.81;88.40;98400.94;5068013;28;20130;-84
2020/12/17 09:17:38;;;;;;;35.63;18.55;;;;;;;6.89;85.89;98410.38;5073686;28;20027;-84
2020/12/17 09:20:19;;;;;;;39.42;19.73;;;;;;;7.01;86.42;98417.94;5065384;28;20028;-85
2020/12/17 09:22:45;;;;;;;41.03;20.08;;;;;;;7.03;85.98;98404.63;5070597;28;20451;-83
2020/12/17 09:25:15;;;;;;;54.95;27.52;;;;;;;6.92;85.79;98402.31;5071088;28;20031;-84
2020/12/17 09:27:45;;;;;;;45.45;23.23;;;;;;;7.03;85.36;98399.28;5068376;28;20475;-86
2020/12/17 09:30:19;;;;;;;54.88;26.15;;;;;;;6.99;86.51;98397.66;5057529;28;20028;-85
2020/12/17 09:32:53;;;;;;;50.85;25.02;;;;;;;6.91;85.19;98376.66;5070257;28;20032;-83
2020/12/17 09:35:20;;;;;;;55.97;24.55;;;;;;;6.96;87.17;98405.72;5092450;28;20055;-84
2020/12/17 09:38:07;;;;;;;42.92;22.08;;;;;;;6.79;87.59;98390.38;5093530;28;20084;-85
2020/12/17 09:40:33;;;;;;;51.75;25.55;;;;;;;6.67;88.51;98405.84;5094958;28;20036;-85
2020/12/17 09:43:09;;;;;;;54.33;28.25;;;;;;;6.67;88.40;98385.47;5097318;28;20114;-85
2020/12/17 09:45:49;;;;;;;43.88;21.48;;;;;;;6.63;88.94;98389.13;5097155;28;20528;-85
2020/12/17 09:48:20;;;;;;;49.20;21.92;;;;;;;6.57;88.74;98386.66;5080494;28;20035;-86
2020/12/17 09:50:55;;;;;;;38.40;20.25;;;;;;;6.85;88.08;98403.47;5094438;28;20085;-83
2020/12/17 09:53:24;;;;;;;45.85;22.65;;;;;;;6.55;88.79;98383.19;5112984;28;20041;-85
2020/12/17 09:55:51;;;;;;;45.58;21.20;;;;;;;6.39;90.25;98413.84;5100861;28;20034;-85
2020/12/17 09:58:17;;;;;;;41.75;19.90;;;;;;;6.22;92.02;98400.19;5094451;28;20035;-85
2020/12/17 10:00:42;;;;;;;47.13;21.27;;;;;;;6.08;92.31;98405.94;5096009;28;20111;-84
2020/12/17 10:03:08;;;;;;;38.15;19.80;;;;;;;6.13;92.55;98398.69;5095744;28;20550;-85
2020/12/17 10:05:34;;;;;;;47.72;21.75;;;;;;;6.06;92.69;98404.25;5095498;28;20039;-86
2020/12/17 10:08:00;;;;;;;42.55;20.40;;;;;;;5.94;92.95;98393.06;5093766;28;20565;-85
2020/12/17 10:10:26;;;;;;;77.70;33.08;;;;;;;6.07;92.43;98400.66;5095070;28;20115;-85
2020/12/17 10:12:51;;;;;;;52.42;26.08;;;;;;;6.42;91.42;98405.78;5111584;28;20496;-86
2020/12/17 10:15:17;;;;;;;47.50;24.08;;;;;;;6.41;90.88;98393.38;5085989;28;20027;-85
2020/12/17 10:20:35;;;;;;;45.05;22.33;;;;;;;6.50;91.30;98399.28;5112728;28;20055;-85
2020/12/17 10:23:01;;;;;;;63.95;29.23;;;;;;;6.48;90.26;98384.31;5111772;28;20032;-85
2020/12/17 10:25:27;;;;;;;47.88;24.02;;;;;;;6.63;90.17;98393.56;5095110;28;20034;-84
2020/12/17 10:27:55;;;;;;;43.72;23.20;;;;;;;6.95;89.48;98396.03;5095138;28;20042;-84
2020/12/17 10:30:21;;;;;;;46.03;24.35;;;;;;;7.11;87.83;98393.72;5095721;28;20036;-84
2020/12/17 10:32:46;;;;;;;52.95;25.35;;;;;;;7.09;87.44;98391.97;5096097;28;20028;-84
2020/12/17 10:35:12;;;;;;;49.17;23.55;;;;;;;7.11;86.76;98391.06;5095103;28;20160;-85
2020/12/17 10:37:39;;;;;;;50.10;25.38;;;;;;;7.27;86.01;98397.56;5095028;28;20028;-83
2020/12/17 10:40:05;;;;;;;59.75;25.15;;;;;;;7.26;85.65;98393.19;5095798;28;20035;-84
2020/12/17 10:42:31;;;;;;;52.17;25.98;;;;;;;7.14;86.29;98394.47;5095853;28;20027;-84
2020/12/17 10:45:00;;;;;;;48.70;25.52;;;;;;;7.18;86.50;98393.44;5096239;28;20031;-85
2020/12/17 10:47:25;;;;;;;59.83;28.92;;;;;;;7.28;85.98;98394.00;5096911;28;20032;-84
2020/12/17 10:49:51;;;;;;;65.75;27.85;;;;;;;7.36;85.12;98397.25;5094591;28;20041;-86
2020/12/17 10:52:18;;;;;;;64.90;29.10;;;;;;;7.18;85.80;98396.09;5096964;27;20028;-84
2020/12/17 10:54:43;;;;;;;68.88;32.25;;;;;;;7.11;87.36;98383.09;5095269;28;20402;-85
2020/12/17 10:57:09;;;;;;;66.40;30.23;;;;;;;7.19;86.91;98391.66;5094736;28;20027;-84
2020/12/17 10:59:35;;;;;;;73.07;35.03;;;;;;;7.19;86.73;98395.19;5096082;28;20501;-83
2020/12/17 11:02:01;;;;;;;66.40;30.80;;;;;;;7.04;87.10;98388.59;5094736;28;20034;-84
2020/12/17 11:04:26;;;;;;;73.80;31.23;;;;;;;6.97;87.85;98395.06;5094821;28;20023;-83
2020/12/17 11:06:56;;;;;;;71.95;32.38;;;;;;;7.14;87.39;98397.13;5094999;28;20035;-84
2020/12/17 11:09:27;;;;;;;70.72;33.83;;;;;;;7.14;86.41;98386.47;5095178;28;20028;-84
2020/12/17 11:11:54;;;;;;;88.10;39.63;;;;;;;7.30;86.22;98384.16;5097942;28;20124;-83
2020/12/17 11:14:20;;;;;;;106.72;47.25;;;;;;;7.19;85.92;98373.03;5095519;28;20029;-83
2020/12/17 11:16:50;;;;;;;72.78;31.33;;;;;;;7.17;85.07;98362.44;5095134;28;20130;-83
2020/12/17 11:19:16;;;;;;;79.68;35.55;;;;;;;7.12;85.46;98376.81;5095397;28;20112;-83
2020/12/17 11:21:42;;;;;;;76.63;36.00;;;;;;;7.17;85.70;98375.72;5094348;28;20091;-84
2020/12/17 11:24:11;;;;;;;65.78;31.75;;;;;;;7.27;85.87;98394.91;5096191;28;20032;-84
2020/12/17 11:26:47;;;;;;;106.25;43.58;;;;;;;7.36;86.10;98387.47;5095731;28;20026;-83
2020/12/17 11:29:14;;;;;;;118.30;44.45;;;;;;;7.13;86.21;98370.59;5096083;28;20107;-84
2020/12/17 11:31:44;;;;;;;78.95;38.05;;;;;;;7.14;85.35;98361.69;5111164;28;20055;-84
2020/12/17 11:34:10;;;;;;;78.03;34.83;;;;;;;6.94;86.96;98389.84;5095518;28;20039;-84
2020/12/17 11:36:35;;;;;;;119.72;47.55;;;;;;;7.02;87.00;98392.22;5094257;28;20027;-84
2020/12/17 11:39:01;;;;;;;86.75;39.28;;;;;;;7.07;86.84;98391.13;5095164;28;20020;-85
2020/12/17 11:41:34;;;;;;;98.53;44.33;;;;;;;7.14;86.47;98375.84;5096060;28;20027;-85
2020/12/17 11:44:00;;;;;;;99.32;44.92;;;;;;;7.12;86.92;98401.63;5095594;28;20034;-85
2020/12/17 11:46:26;;;;;;;78.60;34.95;;;;;;;7.01;87.32;98385.19;5111431;28;20042;-84
2020/12/17 11:48:52;;;;;;;77.28;35.95;;;;;;;7.00;88.70;98389.63;5093473;28;20032;-84
2020/12/17 11:51:24;;;;;;;74.53;35.75;;;;;;;6.80;89.68;98386.75;5094781;28;20559;-85
2020/12/17 11:53:49;;;;;;;99.97;43.67;;;;;;;6.80;90.90;98400.06;5093281;28;20031;-84
2020/12/17 11:56:15;;;;;;;93.90;44.40;;;;;;;6.90;89.88;98392.66;5093700;28;20032;-84
2020/12/17 11:58:44;;;;;;;83.25;37.90;;;;;;;6.89;89.33;98404.22;5093402;28;20024;-84
2020/12/17 12:01:10;;;;;;;81.20;37.05;;;;;;;6.92;90.13;98398.81;5097061;28;20079;-84
2020/12/17 12:03:35;;;;;;;73.30;31.75;;;;;;;6.99;88.52;98403.84;5099318;28;20047;-84
2020/12/17 12:06:01;;;;;;;73.07;33.53;;;;;;;6.86;88.81;98391.03;5099398;28;20023;-84
2020/12/17 12:08:27;;;;;;;71.28;32.63;;;;;;;6.79;88.86;98390.38;5094271;28;20122;-84
2020/12/17 12:10:52;;;;;;;76.78;34.00;;;;;;;6.69;90.13;98391.59;5093650;28;20406;-83
2020/12/17 12:13:21;;;;;;;89.07;40.03;;;;;;;6.78;89.84;98401.91;5094137;28;20112;-83
2020/12/17 12:15:52;;;;;;;86.82;37.08;;;;;;;6.68;90.03;98402.25;5093350;28;20031;-84
2020/12/17 12:18:18;;;;;;;95.63;40.00;;;;;;;6.48;90.75;98397.59;5095089;28;20418;-84